sensor_id;sensor_type;location;lat;lon;timestamp;P1;durP1;ratioP1;P2;durP2;ratioP2
21593;SDS011;10959;51.328;7.322;2023-05-27T00:02:13;13.20;;;4.97;;
21593;SDS011;10959;51.328;7.322;2023-05-27T00:04:39;14.23;;;5.77;;
21593;SDS011;10959;51.328;7.322;2023-05-27T00:07:07;12.17;;;5.57;;
21593;SDS011;10959;51.328;7.322;2023-05-27T00:09:34;11.40;;;5.47;;
21593;SDS011;10959;51.328;7.322;2023-05-27T00:12:00;14.07;;;5.90;;
21593;SDS011;10959;51.328;7.322;2023-05-27T00:14:27;14.80;;;5.63;;
21593;SDS011;10959;51.328;7.322;2023-05-27T00:16:53;14.93;;;5.20;;
21593;SDS011;10959;51.328;7.322;2023-05-27T00:19:20;15.27;;;5.80;;
21593;SDS011;10959;51.328;7.322;2023-05-27T00:21:46;14.33;;;6.07;;
21593;SDS011;10959;51.328;7.322;2023-05-27T00:24:14;14.97;;;5.83;;
21593;SDS011;10959;51.328;7.322;2023-05-27T00:26:41;18.70;;;5.90;;
21593;SDS011;10959;51.328;7.322;2023-05-27T00:29:07;14.67;;;6.10;;
21593;SDS011;10959;51.328;7.322;2023-05-27T00:31:34;12.57;;;5.63;;
21593;SDS011;10959;51.328;7.322;2023-05-27T00:34:00;16.50;;;5.47;;
21593;SDS011;10959;51.328;7.322;2023-05-27T00:36:27;12.40;;;5.10;;
21593;SDS011;10959;51.328;7.322;2023-05-27T00:38:53;12.40;;;5.57;;
21593;SDS011;10959;51.328;7.322;2023-05-27T00:41:21;15.53;;;5.30;;
21593;SDS011;10959;51.328;7.322;2023-05-27T00:43:49;12.47;;;5.10;;
21593;SDS011;10959;51.328;7.322;2023-05-27T00:46:15;15.10;;;5.40;;
21593;SDS011;10959;51.328;7.322;2023-05-27T00:48:41;13.50;;;5.07;;
21593;SDS011;10959;51.328;7.322;2023-05-27T00:51:08;15.90;;;5.53;;
21593;SDS011;10959;51.328;7.322;2023-05-27T00:53:36;14.53;;;5.50;;
21593;SDS011;10959;51.328;7.322;2023-05-27T00:56:05;10.87;;;4.83;;
21593;SDS011;10959;51.328;7.322;2023-05-27T00:58:34;12.47;;;4.83;;
21593;SDS011;10959;51.328;7.322;2023-05-27T01:01:00;13.87;;;4.73;;
21593;SDS011;10959;51.328;7.322;2023-05-27T01:03:27;14.93;;;5.50;;
21593;SDS011;10959;51.328;7.322;2023-05-27T01:05:57;20.47;;;6.27;;
21593;SDS011;10959;51.328;7.322;2023-05-27T01:08:39;13.63;;;5.57;;
21593;SDS011;10959;51.328;7.322;2023-05-27T01:11:16;16.07;;;6.03;;
21593;SDS011;10959;51.328;7.322;2023-05-27T01:13:49;13.73;;;4.73;;
21593;SDS011;10959;51.328;7.322;2023-05-27T01:16:18;16.07;;;5.80;;
21593;SDS011;10959;51.328;7.322;2023-05-27T01:18:45;16.77;;;5.63;;
21593;SDS011;10959;51.328;7.322;2023-05-27T01:21:15;15.93;;;5.80;;
21593;SDS011;10959;51.328;7.322;2023-05-27T01:23:46;14.27;;;5.33;;
21593;SDS011;10959;51.328;7.322;2023-05-27T01:26:14;14.97;;;5.67;;
21593;SDS011;10959;51.328;7.322;2023-05-27T01:28:40;18.80;;;6.63;;
21593;SDS011;10959;51.328;7.322;2023-05-27T01:31:10;14.67;;;5.40;;
21593;SDS011;10959;51.328;7.322;2023-05-27T01:33:40;12.27;;;6.70;;
21593;SDS011;10959;51.328;7.322;2023-05-27T01:36:16;12.93;;;6.13;;
21593;SDS011;10959;51.328;7.322;2023-05-27T01:38:47;15.73;;;6.27;;
21593;SDS011;10959;51.328;7.322;2023-05-27T01:41:15;19.70;;;6.60;;
21593;SDS011;10959;51.328;7.322;2023-05-27T01:43:42;21.80;;;6.57;;
21593;SDS011;10959;51.328;7.322;2023-05-27T01:46:09;16.10;;;7.07;;
21593;SDS011;10959;51.328;7.322;2023-05-27T01:48:36;20.10;;;7.20;;
21593;SDS011;10959;51.328;7.322;2023-05-27T01:51:02;19.07;;;7.30;;
21593;SDS011;10959;51.328;7.322;2023-05-27T01:53:29;16.43;;;6.63;;
21593;SDS011;10959;51.328;7.322;2023-05-27T01:55:57;17.13;;;6.90;;
21593;SDS011;10959;51.328;7.322;2023-05-27T01:58:24;12.87;;;5.90;;
21593;SDS011;10959;51.328;7.322;2023-05-27T02:00:50;17.30;;;6.50;;
21593;SDS011;10959;51.328;7.322;2023-05-27T02:03:16;16.33;;;6.03;;
21593;SDS011;10959;51.328;7.322;2023-05-27T02:05:43;18.63;;;6.53;;
21593;SDS011;10959;51.328;7.322;2023-05-27T02:08:10;16.37;;;6.53;;
21593;SDS011;10959;51.328;7.322;2023-05-27T02:10:36;16.33;;;7.63;;
21593;SDS011;10959;51.328;7.322;2023-05-27T02:13:04;14.47;;;6.67;;
21593;SDS011;10959;51.328;7.322;2023-05-27T02:15:31;19.50;;;6.80;;
21593;SDS011;10959;51.328;7.322;2023-05-27T02:17:57;13.87;;;6.13;;
21593;SDS011;10959;51.328;7.322;2023-05-27T02:20:23;18.03;;;7.00;;
21593;SDS011;10959;51.328;7.322;2023-05-27T02:22:50;16.47;;;6.93;;
21593;SDS011;10959;51.328;7.322;2023-05-27T02:25:17;19.57;;;7.07;;
21593;SDS011;10959;51.328;7.322;2023-05-27T02:27:43;16.00;;;6.40;;
21593;SDS011;10959;51.328;7.322;2023-05-27T02:30:15;20.33;;;6.93;;
21593;SDS011;10959;51.328;7.322;2023-05-27T02:32:42;15.63;;;6.90;;
21593;SDS011;10959;51.328;7.322;2023-05-27T02:35:09;15.80;;;7.13;;
21593;SDS011;10959;51.328;7.322;2023-05-27T02:37:40;14.37;;;6.70;;
21593;SDS011;10959;51.328;7.322;2023-05-27T02:40:07;13.77;;;5.73;;
21593;SDS011;10959;51.328;7.322;2023-05-27T02:42:35;14.70;;;6.40;;
21593;SDS011;10959;51.328;7.322;2023-05-27T02:45:02;13.30;;;6.33;;
21593;SDS011;10959;51.328;7.322;2023-05-27T02:47:30;15.50;;;6.57;;
21593;SDS011;10959;51.328;7.322;2023-05-27T02:49:57;17.07;;;6.90;;
21593;SDS011;10959;51.328;7.322;2023-05-27T02:52:23;19.47;;;7.20;;
21593;SDS011;10959;51.328;7.322;2023-05-27T02:54:50;24.97;;;8.23;;
21593;SDS011;10959;51.328;7.322;2023-05-27T02:57:16;20.43;;;8.23;;
21593;SDS011;10959;51.328;7.322;2023-05-27T02:59:43;17.23;;;7.20;;
21593;SDS011;10959;51.328;7.322;2023-05-27T03:02:10;19.00;;;8.47;;
21593;SDS011;10959;51.328;7.322;2023-05-27T03:04:38;18.00;;;8.27;;
21593;SDS011;10959;51.328;7.322;2023-05-27T03:07:05;21.83;;;7.00;;
21593;SDS011;10959;51.328;7.322;2023-05-27T03:09:32;16.53;;;7.20;;
21593;SDS011;10959;51.328;7.322;2023-05-27T03:11:58;13.90;;;7.20;;
21593;SDS011;10959;51.328;7.322;2023-05-27T03:14:24;16.90;;;7.67;;
21593;SDS011;10959;51.328;7.322;2023-05-27T03:16:51;14.53;;;7.50;;
21593;SDS011;10959;51.328;7.322;2023-05-27T03:19:18;13.47;;;6.90;;
21593;SDS011;10959;51.328;7.322;2023-05-27T03:21:46;19.37;;;7.17;;
21593;SDS011;10959;51.328;7.322;2023-05-27T03:24:13;21.40;;;8.67;;
21593;SDS011;10959;51.328;7.322;2023-05-27T03:26:39;17.17;;;6.93;;
21593;SDS011;10959;51.328;7.322;2023-05-27T03:29:05;19.30;;;7.47;;
21593;SDS011;10959;51.328;7.322;2023-05-27T03:31:32;22.80;;;7.83;;
21593;SDS011;10959;51.328;7.322;2023-05-27T03:33:58;17.93;;;7.27;;
21593;SDS011;10959;51.328;7.322;2023-05-27T03:36:25;17.07;;;7.73;;
21593;SDS011;10959;51.328;7.322;2023-05-27T03:38:52;17.73;;;8.50;;
21593;SDS011;10959;51.328;7.322;2023-05-27T03:41:19;17.43;;;7.60;;
21593;SDS011;10959;51.328;7.322;2023-05-27T03:43:46;17.67;;;8.27;;
21593;SDS011;10959;51.328;7.322;2023-05-27T03:46:12;17.67;;;7.80;;
21593;SDS011;10959;51.328;7.322;2023-05-27T03:48:38;15.37;;;7.50;;
21593;SDS011;10959;51.328;7.322;2023-05-27T03:51:05;16.57;;;7.50;;
21593;SDS011;10959;51.328;7.322;2023-05-27T03:53:31;16.83;;;7.67;;
21593;SDS011;10959;51.328;7.322;2023-05-27T03:55:59;18.60;;;8.70;;
21593;SDS011;10959;51.328;7.322;2023-05-27T03:58:26;17.77;;;8.00;;
21593;SDS011;10959;51.328;7.322;2023-05-27T04:00:52;13.57;;;7.60;;
21593;SDS011;10959;51.328;7.322;2023-05-27T04:03:20;21.27;;;9.03;;
21593;SDS011;10959;51.328;7.322;2023-05-27T04:05:47;19.40;;;8.10;;
21593;SDS011;10959;51.328;7.322;2023-05-27T04:08:13;20.23;;;8.53;;
21593;SDS011;10959;51.328;7.322;2023-05-27T04:10:40;22.23;;;8.57;;
21593;SDS011;10959;51.328;7.322;2023-05-27T04:13:07;16.47;;;7.27;;
21593;SDS011;10959;51.328;7.322;2023-05-27T04:15:34;20.90;;;8.27;;
21593;SDS011;10959;51.328;7.322;2023-05-27T04:18:00;15.63;;;7.87;;
21593;SDS011;10959;51.328;7.322;2023-05-27T04:20:34;17.10;;;7.53;;
21593;SDS011;10959;51.328;7.322;2023-05-27T04:23:01;12.90;;;6.50;;
21593;SDS011;10959;51.328;7.322;2023-05-27T04:25:28;17.27;;;8.03;;
21593;SDS011;10959;51.328;7.322;2023-05-27T04:27:54;21.33;;;7.93;;
21593;SDS011;10959;51.328;7.322;2023-05-27T04:30:23;16.90;;;7.87;;
21593;SDS011;10959;51.328;7.322;2023-05-27T04:32:50;16.57;;;8.40;;
21593;SDS011;10959;51.328;7.322;2023-05-27T04:35:17;17.37;;;7.57;;
21593;SDS011;10959;51.328;7.322;2023-05-27T04:37:44;18.33;;;8.33;;
21593;SDS011;10959;51.328;7.322;2023-05-27T04:40:12;21.57;;;8.63;;
21593;SDS011;10959;51.328;7.322;2023-05-27T04:42:39;16.77;;;8.47;;
21593;SDS011;10959;51.328;7.322;2023-05-27T04:45:09;21.13;;;7.90;;
21593;SDS011;10959;51.328;7.322;2023-05-27T04:47:38;19.50;;;8.70;;
21593;SDS011;10959;51.328;7.322;2023-05-27T04:50:06;15.27;;;7.63;;
21593;SDS011;10959;51.328;7.322;2023-05-27T04:52:33;17.00;;;8.40;;
21593;SDS011;10959;51.328;7.322;2023-05-27T04:55:02;19.47;;;8.60;;
21593;SDS011;10959;51.328;7.322;2023-05-27T04:57:29;16.43;;;7.93;;
21593;SDS011;10959;51.328;7.322;2023-05-27T04:59:55;23.57;;;8.90;;
21593;SDS011;10959;51.328;7.322;2023-05-27T05:02:44;18.60;;;8.87;;
21593;SDS011;10959;51.328;7.322;2023-05-27T05:05:12;14.57;;;7.63;;
21593;SDS011;10959;51.328;7.322;2023-05-27T05:07:39;19.33;;;8.33;;
21593;SDS011;10959;51.328;7.322;2023-05-27T05:10:06;15.20;;;7.70;;
21593;SDS011;10959;51.328;7.322;2023-05-27T05:12:34;14.77;;;6.80;;
21593;SDS011;10959;51.328;7.322;2023-05-27T05:15:01;16.03;;;7.37;;
21593;SDS011;10959;51.328;7.322;2023-05-27T05:17:28;15.47;;;7.27;;
21593;SDS011;10959;51.328;7.322;2023-05-27T05:19:55;13.70;;;7.60;;
21593;SDS011;10959;51.328;7.322;2023-05-27T05:22:22;16.07;;;7.10;;
21593;SDS011;10959;51.328;7.322;2023-05-27T05:24:49;17.13;;;7.07;;
21593;SDS011;10959;51.328;7.322;2023-05-27T05:27:15;12.97;;;6.57;;
21593;SDS011;10959;51.328;7.322;2023-05-27T05:29:42;14.77;;;7.43;;
21593;SDS011;10959;51.328;7.322;2023-05-27T05:32:09;12.13;;;7.30;;
21593;SDS011;10959;51.328;7.322;2023-05-27T05:34:36;13.63;;;8.07;;
21593;SDS011;10959;51.328;7.322;2023-05-27T05:37:04;11.93;;;7.33;;
21593;SDS011;10959;51.328;7.322;2023-05-27T05:39:31;15.93;;;7.03;;
21593;SDS011;10959;51.328;7.322;2023-05-27T05:41:58;16.77;;;7.50;;
21593;SDS011;10959;51.328;7.322;2023-05-27T05:44:25;19.03;;;8.63;;
21593;SDS011;10959;51.328;7.322;2023-05-27T05:46:52;15.07;;;7.23;;
21593;SDS011;10959;51.328;7.322;2023-05-27T05:49:18;18.90;;;8.70;;
21593;SDS011;10959;51.328;7.322;2023-05-27T05:51:45;15.20;;;7.07;;
21593;SDS011;10959;51.328;7.322;2023-05-27T05:54:12;12.20;;;6.90;;
21593;SDS011;10959;51.328;7.322;2023-05-27T05:56:39;16.07;;;7.63;;
21593;SDS011;10959;51.328;7.322;2023-05-27T05:59:05;14.50;;;6.87;;
21593;SDS011;10959;51.328;7.322;2023-05-27T06:01:32;13.23;;;7.07;;
21593;SDS011;10959;51.328;7.322;2023-05-27T06:03:58;14.53;;;6.80;;
21593;SDS011;10959;51.328;7.322;2023-05-27T06:06:29;17.17;;;8.13;;
21593;SDS011;10959;51.328;7.322;2023-05-27T06:08:55;11.93;;;6.07;;
21593;SDS011;10959;51.328;7.322;2023-05-27T06:11:23;15.63;;;7.13;;
21593;SDS011;10959;51.328;7.322;2023-05-27T06:13:51;13.13;;;7.20;;
21593;SDS011;10959;51.328;7.322;2023-05-27T06:16:17;16.00;;;7.13;;
21593;SDS011;10959;51.328;7.322;2023-05-27T06:18:44;17.23;;;8.00;;
21593;SDS011;10959;51.328;7.322;2023-05-27T06:21:11;13.27;;;6.50;;
21593;SDS011;10959;51.328;7.322;2023-05-27T06:23:37;9.80;;;6.37;;
21593;SDS011;10959;51.328;7.322;2023-05-27T06:26:04;13.73;;;7.10;;
21593;SDS011;10959;51.328;7.322;2023-05-27T06:28:32;12.30;;;6.47;;
21593;SDS011;10959;51.328;7.322;2023-05-27T06:30:59;13.93;;;6.67;;
21593;SDS011;10959;51.328;7.322;2023-05-27T06:33:25;13.07;;;6.53;;
21593;SDS011;10959;51.328;7.322;2023-05-27T06:35:51;14.03;;;6.40;;
21593;SDS011;10959;51.328;7.322;2023-05-27T06:38:18;15.37;;;6.57;;
21593;SDS011;10959;51.328;7.322;2023-05-27T06:40:44;14.10;;;5.90;;
21593;SDS011;10959;51.328;7.322;2023-05-27T06:43:11;13.17;;;6.10;;
21593;SDS011;10959;51.328;7.322;2023-05-27T06:45:38;12.03;;;5.93;;
21593;SDS011;10959;51.328;7.322;2023-05-27T06:48:05;13.90;;;5.80;;
21593;SDS011;10959;51.328;7.322;2023-05-27T06:50:32;14.10;;;5.60;;
21593;SDS011;10959;51.328;7.322;2023-05-27T06:52:58;13.80;;;6.07;;
21593;SDS011;10959;51.328;7.322;2023-05-27T06:55:25;11.77;;;6.53;;
21593;SDS011;10959;51.328;7.322;2023-05-27T06:57:51;13.57;;;6.40;;
21593;SDS011;10959;51.328;7.322;2023-05-27T07:00:18;14.70;;;6.00;;
21593;SDS011;10959;51.328;7.322;2023-05-27T07:02:46;12.53;;;5.57;;
21593;SDS011;10959;51.328;7.322;2023-05-27T07:05:13;12.10;;;6.20;;
21593;SDS011;10959;51.328;7.322;2023-05-27T07:07:39;12.83;;;6.03;;
21593;SDS011;10959;51.328;7.322;2023-05-27T07:10:06;13.20;;;5.47;;
21593;SDS011;10959;51.328;7.322;2023-05-27T07:12:33;9.63;;;5.30;;
21593;SDS011;10959;51.328;7.322;2023-05-27T07:15:00;16.17;;;6.30;;
21593;SDS011;10959;51.328;7.322;2023-05-27T07:17:26;15.20;;;5.80;;
21593;SDS011;10959;51.328;7.322;2023-05-27T07:19:54;13.20;;;5.97;;
21593;SDS011;10959;51.328;7.322;2023-05-27T07:22:20;13.30;;;6.40;;
21593;SDS011;10959;51.328;7.322;2023-05-27T07:24:47;12.97;;;5.60;;
21593;SDS011;10959;51.328;7.322;2023-05-27T07:27:13;13.00;;;6.00;;
21593;SDS011;10959;51.328;7.322;2023-05-27T07:29:43;15.93;;;7.00;;
21593;SDS011;10959;51.328;7.322;2023-05-27T07:32:12;12.77;;;5.10;;
21593;SDS011;10959;51.328;7.322;2023-05-27T07:34:38;10.87;;;6.20;;
21593;SDS011;10959;51.328;7.322;2023-05-27T07:37:06;16.53;;;6.67;;
21593;SDS011;10959;51.328;7.322;2023-05-27T07:39:32;11.67;;;5.60;;
21593;SDS011;10959;51.328;7.322;2023-05-27T07:41:59;12.07;;;5.87;;
21593;SDS011;10959;51.328;7.322;2023-05-27T07:44:25;12.90;;;5.63;;
21593;SDS011;10959;51.328;7.322;2023-05-27T07:46:53;13.10;;;5.30;;
21593;SDS011;10959;51.328;7.322;2023-05-27T07:49:19;13.03;;;5.70;;
21593;SDS011;10959;51.328;7.322;2023-05-27T07:51:45;11.90;;;5.87;;
21593;SDS011;10959;51.328;7.322;2023-05-27T07:54:13;13.27;;;5.73;;
21593;SDS011;10959;51.328;7.322;2023-05-27T07:56:39;13.63;;;5.77;;
21593;SDS011;10959;51.328;7.322;2023-05-27T07:59:06;14.23;;;5.60;;
21593;SDS011;10959;51.328;7.322;2023-05-27T08:01:32;14.83;;;5.53;;
21593;SDS011;10959;51.328;7.322;2023-05-27T08:03:59;15.13;;;5.87;;
21593;SDS011;10959;51.328;7.322;2023-05-27T08:06:26;11.43;;;5.33;;
21593;SDS011;10959;51.328;7.322;2023-05-27T08:08:52;12.53;;;6.30;;
21593;SDS011;10959;51.328;7.322;2023-05-27T08:11:20;10.23;;;5.93;;
21593;SDS011;10959;51.328;7.322;2023-05-27T08:13:47;12.07;;;5.73;;
21593;SDS011;10959;51.328;7.322;2023-05-27T08:16:13;14.63;;;6.20;;
21593;SDS011;10959;51.328;7.322;2023-05-27T08:18:40;10.33;;;5.00;;
21593;SDS011;10959;51.328;7.322;2023-05-27T08:21:06;15.43;;;5.37;;
21593;SDS011;10959;51.328;7.322;2023-05-27T08:23:32;10.70;;;4.97;;
21593;SDS011;10959;51.328;7.322;2023-05-27T08:25:59;11.50;;;4.27;;
21593;SDS011;10959;51.328;7.322;2023-05-27T08:28:27;10.13;;;4.37;;
21593;SDS011;10959;51.328;7.322;2023-05-27T08:30:53;11.47;;;5.00;;
21593;SDS011;10959;51.328;7.322;2023-05-27T08:33:20;13.33;;;5.17;;
21593;SDS011;10959;51.328;7.322;2023-05-27T08:35:46;11.67;;;4.93;;
21593;SDS011;10959;51.328;7.322;2023-05-27T08:38:13;10.00;;;5.00;;
21593;SDS011;10959;51.328;7.322;2023-05-27T08:40:39;12.90;;;5.10;;
21593;SDS011;10959;51.328;7.322;2023-05-27T08:43:06;12.33;;;5.33;;
21593;SDS011;10959;51.328;7.322;2023-05-27T08:45:34;11.70;;;4.67;;
21593;SDS011;10959;51.328;7.322;2023-05-27T08:48:01;9.13;;;4.63;;
21593;SDS011;10959;51.328;7.322;2023-05-27T08:50:27;11.63;;;5.37;;
21593;SDS011;10959;51.328;7.322;2023-05-27T08:52:54;13.07;;;5.20;;
21593;SDS011;10959;51.328;7.322;2023-05-27T08:55:21;11.93;;;5.03;;
21593;SDS011;10959;51.328;7.322;2023-05-27T08:57:50;12.65;;;5.15;;
21593;SDS011;10959;51.328;7.322;2023-05-27T09:00:18;9.95;;;5.00;;
21593;SDS011;10959;51.328;7.322;2023-05-27T09:02:46;10.50;;;4.53;;
21593;SDS011;10959;51.328;7.322;2023-05-27T09:05:14;7.30;;;4.47;;
21593;SDS011;10959;51.328;7.322;2023-05-27T09:07:41;8.90;;;4.50;;
21593;SDS011;10959;51.328;7.322;2023-05-27T09:10:08;10.90;;;4.85;;
21593;SDS011;10959;51.328;7.322;2023-05-27T09:12:35;12.25;;;5.43;;
21593;SDS011;10959;51.328;7.322;2023-05-27T09:15:02;12.43;;;4.75;;
21593;SDS011;10959;51.328;7.322;2023-05-27T09:17:29;13.75;;;4.88;;
21593;SDS011;10959;51.328;7.322;2023-05-27T09:19:58;10.32;;;4.50;;
21593;SDS011;10959;51.328;7.322;2023-05-27T09:22:25;11.30;;;4.50;;
21593;SDS011;10959;51.328;7.322;2023-05-27T09:24:54;8.77;;;3.97;;
21593;SDS011;10959;51.328;7.322;2023-05-27T09:27:25;10.77;;;4.63;;
21593;SDS011;10959;51.328;7.322;2023-05-27T09:29:51;9.68;;;4.75;;
21593;SDS011;10959;51.328;7.322;2023-05-27T09:32:25;12.45;;;4.43;;
21593;SDS011;10959;51.328;7.322;2023-05-27T09:34:52;10.80;;;4.35;;
21593;SDS011;10959;51.328;7.322;2023-05-27T09:37:23;11.45;;;4.75;;
21593;SDS011;10959;51.328;7.322;2023-05-27T09:39:51;10.48;;;4.93;;
21593;SDS011;10959;51.328;7.322;2023-05-27T09:42:18;8.27;;;3.92;;
21593;SDS011;10959;51.328;7.322;2023-05-27T09:44:45;10.15;;;3.92;;
21593;SDS011;10959;51.328;7.322;2023-05-27T09:47:13;10.45;;;4.57;;
21593;SDS011;10959;51.328;7.322;2023-05-27T09:49:42;11.52;;;4.85;;
21593;SDS011;10959;51.328;7.322;2023-05-27T09:52:09;8.02;;;3.95;;
21593;SDS011;10959;51.328;7.322;2023-05-27T09:54:40;10.00;;;4.38;;
21593;SDS011;10959;51.328;7.322;2023-05-27T09:57:07;10.27;;;5.00;;
21593;SDS011;10959;51.328;7.322;2023-05-27T09:59:34;10.95;;;4.95;;
21593;SDS011;10959;51.328;7.322;2023-05-27T10:02:00;9.15;;;3.83;;
21593;SDS011;10959;51.328;7.322;2023-05-27T10:04:27;7.80;;;3.83;;
21593;SDS011;10959;51.328;7.322;2023-05-27T10:06:54;14.77;;;5.10;;
21593;SDS011;10959;51.328;7.322;2023-05-27T10:09:22;9.73;;;4.88;;
21593;SDS011;10959;51.328;7.322;2023-05-27T10:11:50;12.07;;;5.05;;
21593;SDS011;10959;51.328;7.322;2023-05-27T10:14:17;8.77;;;4.22;;
21593;SDS011;10959;51.328;7.322;2023-05-27T10:16:51;9.35;;;3.85;;
21593;SDS011;10959;51.328;7.322;2023-05-27T10:19:19;11.10;;;4.53;;
21593;SDS011;10959;51.328;7.322;2023-05-27T10:21:46;9.15;;;4.55;;
21593;SDS011;10959;51.328;7.322;2023-05-27T10:24:12;14.07;;;4.95;;
21593;SDS011;10959;51.328;7.322;2023-05-27T10:26:39;11.00;;;4.35;;
21593;SDS011;10959;51.328;7.322;2023-05-27T10:29:09;11.52;;;4.88;;
21593;SDS011;10959;51.328;7.322;2023-05-27T10:31:37;8.15;;;3.97;;
21593;SDS011;10959;51.328;7.322;2023-05-27T10:34:10;9.38;;;4.03;;
21593;SDS011;10959;51.328;7.322;2023-05-27T10:36:37;9.55;;;4.20;;
21593;SDS011;10959;51.328;7.322;2023-05-27T10:39:05;10.25;;;5.10;;
21593;SDS011;10959;51.328;7.322;2023-05-27T10:41:38;12.68;;;4.53;;
21593;SDS011;10959;51.328;7.322;2023-05-27T10:44:05;8.30;;;3.88;;
21593;SDS011;10959;51.328;7.322;2023-05-27T10:46:38;9.90;;;4.65;;
21593;SDS011;10959;51.328;7.322;2023-05-27T10:49:09;8.75;;;3.70;;
21593;SDS011;10959;51.328;7.322;2023-05-27T10:51:37;8.20;;;3.85;;
21593;SDS011;10959;51.328;7.322;2023-05-27T10:54:04;11.05;;;4.97;;
21593;SDS011;10959;51.328;7.322;2023-05-27T10:56:31;10.77;;;4.47;;
21593;SDS011;10959;51.328;7.322;2023-05-27T10:58:58;10.35;;;4.45;;
21593;SDS011;10959;51.328;7.322;2023-05-27T11:01:27;10.73;;;4.50;;
21593;SDS011;10959;51.328;7.322;2023-05-27T11:03:57;9.60;;;4.65;;
21593;SDS011;10959;51.328;7.322;2023-05-27T11:06:24;9.18;;;4.70;;
21593;SDS011;10959;51.328;7.322;2023-05-27T11:08:50;8.35;;;4.18;;
21593;SDS011;10959;51.328;7.322;2023-05-27T11:11:17;9.45;;;4.47;;
21593;SDS011;10959;51.328;7.322;2023-05-27T11:13:44;10.80;;;4.88;;
21593;SDS011;10959;51.328;7.322;2023-05-27T11:16:12;11.50;;;4.32;;
21593;SDS011;10959;51.328;7.322;2023-05-27T11:18:40;9.82;;;4.35;;
21593;SDS011;10959;51.328;7.322;2023-05-27T11:21:10;11.00;;;4.25;;
21593;SDS011;10959;51.328;7.322;2023-05-27T11:23:37;9.00;;;4.43;;
21593;SDS011;10959;51.328;7.322;2023-05-27T11:26:10;11.15;;;4.78;;
21593;SDS011;10959;51.328;7.322;2023-05-27T11:28:38;11.88;;;4.97;;
21593;SDS011;10959;51.328;7.322;2023-05-27T11:31:11;8.70;;;5.07;;
21593;SDS011;10959;51.328;7.322;2023-05-27T11:33:40;10.98;;;4.78;;
21593;SDS011;10959;51.328;7.322;2023-05-27T11:36:07;13.55;;;4.97;;
21593;SDS011;10959;51.328;7.322;2023-05-27T11:38:49;10.15;;;5.00;;
21593;SDS011;10959;51.328;7.322;2023-05-27T11:41:17;10.13;;;4.90;;
21593;SDS011;10959;51.328;7.322;2023-05-27T11:43:47;12.65;;;5.10;;
21593;SDS011;10959;51.328;7.322;2023-05-27T11:46:14;13.18;;;5.82;;
21593;SDS011;10959;51.328;7.322;2023-05-27T11:48:41;12.57;;;5.57;;
21593;SDS011;10959;51.328;7.322;2023-05-27T11:51:08;10.00;;;5.45;;
21593;SDS011;10959;51.328;7.322;2023-05-27T11:53:35;10.85;;;4.63;;
21593;SDS011;10959;51.328;7.322;2023-05-27T11:56:05;10.20;;;4.43;;
21593;SDS011;10959;51.328;7.322;2023-05-27T11:58:32;12.10;;;5.55;;
21593;SDS011;10959;51.328;7.322;2023-05-27T12:00:59;12.90;;;5.45;;
21593;SDS011;10959;51.328;7.322;2023-05-27T12:03:25;10.18;;;4.88;;
21593;SDS011;10959;51.328;7.322;2023-05-27T12:05:51;9.73;;;4.70;;
21593;SDS011;10959;51.328;7.322;2023-05-27T12:08:18;11.95;;;5.15;;
21593;SDS011;10959;51.328;7.322;2023-05-27T12:10:44;9.98;;;5.03;;
21593;SDS011;10959;51.328;7.322;2023-05-27T12:13:16;9.65;;;4.88;;
21593;SDS011;10959;51.328;7.322;2023-05-27T12:15:43;10.10;;;4.90;;
21593;SDS011;10959;51.328;7.322;2023-05-27T12:18:09;9.98;;;4.53;;
21593;SDS011;10959;51.328;7.322;2023-05-27T12:20:35;10.95;;;4.88;;
21593;SDS011;10959;51.328;7.322;2023-05-27T12:23:02;12.15;;;5.47;;
21593;SDS011;10959;51.328;7.322;2023-05-27T12:25:28;10.13;;;4.50;;
21593;SDS011;10959;51.328;7.322;2023-05-27T12:27:55;9.65;;;5.10;;
21593;SDS011;10959;51.328;7.322;2023-05-27T12:30:22;10.63;;;4.43;;
21593;SDS011;10959;51.328;7.322;2023-05-27T12:32:49;10.20;;;4.10;;
21593;SDS011;10959;51.328;7.322;2023-05-27T12:35:15;10.45;;;4.88;;
21593;SDS011;10959;51.328;7.322;2023-05-27T12:37:43;10.70;;;4.68;;
21593;SDS011;10959;51.328;7.322;2023-05-27T12:40:10;12.13;;;5.28;;
21593;SDS011;10959;51.328;7.322;2023-05-27T12:42:39;9.93;;;4.50;;
21593;SDS011;10959;51.328;7.322;2023-05-27T12:45:06;13.90;;;5.20;;
21593;SDS011;10959;51.328;7.322;2023-05-27T12:47:35;11.75;;;4.90;;
21593;SDS011;10959;51.328;7.322;2023-05-27T12:50:02;7.55;;;4.45;;
21593;SDS011;10959;51.328;7.322;2023-05-27T12:52:29;14.35;;;4.47;;
21593;SDS011;10959;51.328;7.322;2023-05-27T12:54:55;10.90;;;4.50;;
21593;SDS011;10959;51.328;7.322;2023-05-27T12:57:22;9.60;;;4.38;;
21593;SDS011;10959;51.328;7.322;2023-05-27T12:59:48;13.00;;;4.72;;
21593;SDS011;10959;51.328;7.322;2023-05-27T13:02:15;9.20;;;4.22;;
21593;SDS011;10959;51.328;7.322;2023-05-27T13:04:43;9.77;;;4.40;;
21593;SDS011;10959;51.328;7.322;2023-05-27T13:07:12;11.20;;;4.28;;
21593;SDS011;10959;51.328;7.322;2023-05-27T13:09:39;8.07;;;4.20;;
21593;SDS011;10959;51.328;7.322;2023-05-27T13:12:06;8.35;;;4.47;;
21593;SDS011;10959;51.328;7.322;2023-05-27T13:14:33;10.20;;;4.32;;
21593;SDS011;10959;51.328;7.322;2023-05-27T13:16:59;10.25;;;4.40;;
21593;SDS011;10959;51.328;7.322;2023-05-27T13:19:27;8.02;;;4.20;;
21593;SDS011;10959;51.328;7.322;2023-05-27T13:21:54;7.10;;;4.22;;
21593;SDS011;10959;51.328;7.322;2023-05-27T13:24:21;8.15;;;4.00;;
21593;SDS011;10959;51.328;7.322;2023-05-27T13:26:47;8.55;;;3.95;;
21593;SDS011;10959;51.328;7.322;2023-05-27T13:29:14;7.18;;;3.95;;
21593;SDS011;10959;51.328;7.322;2023-05-27T13:31:40;8.20;;;4.13;;
21593;SDS011;10959;51.328;7.322;2023-05-27T13:34:07;9.15;;;4.28;;
21593;SDS011;10959;51.328;7.322;2023-05-27T13:36:33;11.18;;;4.30;;
21593;SDS011;10959;51.328;7.322;2023-05-27T13:39:01;8.00;;;4.22;;
21593;SDS011;10959;51.328;7.322;2023-05-27T13:41:27;12.50;;;4.60;;
21593;SDS011;10959;51.328;7.322;2023-05-27T13:43:54;8.35;;;4.18;;
21593;SDS011;10959;51.328;7.322;2023-05-27T13:46:20;8.27;;;4.65;;
21593;SDS011;10959;51.328;7.322;2023-05-27T13:48:47;8.63;;;3.88;;
21593;SDS011;10959;51.328;7.322;2023-05-27T13:51:13;8.68;;;4.40;;
21593;SDS011;10959;51.328;7.322;2023-05-27T13:53:40;12.23;;;4.55;;
21593;SDS011;10959;51.328;7.322;2023-05-27T13:56:08;9.75;;;3.72;;
21593;SDS011;10959;51.328;7.322;2023-05-27T13:58:34;10.63;;;4.00;;
21593;SDS011;10959;51.328;7.322;2023-05-27T14:01:01;11.55;;;4.20;;
21593;SDS011;10959;51.328;7.322;2023-05-27T14:03:27;10.60;;;4.30;;
21593;SDS011;10959;51.328;7.322;2023-05-27T14:05:53;9.02;;;4.20;;
21593;SDS011;10959;51.328;7.322;2023-05-27T14:08:21;9.25;;;3.72;;
21593;SDS011;10959;51.328;7.322;2023-05-27T14:10:47;8.52;;;3.97;;
21593;SDS011;10959;51.328;7.322;2023-05-27T14:13:15;9.13;;;3.67;;
21593;SDS011;10959;51.328;7.322;2023-05-27T14:15:42;7.35;;;3.67;;
21593;SDS011;10959;51.328;7.322;2023-05-27T14:18:08;8.52;;;4.03;;
21593;SDS011;10959;51.328;7.322;2023-05-27T14:20:35;8.25;;;4.10;;
21593;SDS011;10959;51.328;7.322;2023-05-27T14:23:01;7.00;;;3.28;;
21593;SDS011;10959;51.328;7.322;2023-05-27T14:25:29;10.32;;;3.78;;
21593;SDS011;10959;51.328;7.322;2023-05-27T14:27:56;11.10;;;4.18;;
21593;SDS011;10959;51.328;7.322;2023-05-27T14:30:27;9.75;;;4.03;;
21593;SDS011;10959;51.328;7.322;2023-05-27T14:32:56;9.00;;;3.80;;
21593;SDS011;10959;51.328;7.322;2023-05-27T14:35:24;8.02;;;3.47;;
21593;SDS011;10959;51.328;7.322;2023-05-27T14:37:50;11.10;;;4.55;;